Time;durP1;ratioP1;P1;durP2;ratioP2;P2;SDS_P1;SDS_P2;PMS_P1;PMS_P2;Temp;Humidity;BMP_temperature;BMP_pressure;BME280_temperature;BME280_humidity;BME280_pressure;Samples;Min_cycle;Max_cycle;Signal;HPM_P1;HPM_P2
2024/03/06 00:03:44;;;;;;;68.97;35.50;;;;;;;5.22;100.00;100603.94;10291843;28;20049;-81
2024/03/06 00:08:47;;;;;;;66.15;33.60;;;;;;;5.35;100.00;100618.31;10289721;28;20050;-80
2024/03/06 00:13:51;;;;;;;62.10;32.78;;;;;;;5.46;100.00;100618.56;10296027;28;20510;-79
2024/03/06 00:18:54;;;;;;;71.45;34.40;;;;;;;5.49;100.00;100628.19;10285127;28;20049;-79
2024/03/06 00:23:57;;;;;;;63.22;33.50;;;;;;;5.50;100.00;100625.44;10312150;28;20059;-79
2024/03/06 00:29:02;;;;;;;59.20;33.13;;;;;;;5.41;100.00;100628.63;10315345;28;20046;-80
2024/03/06 00:34:05;;;;;;;56.60;31.33;;;;;;;5.48;100.00;100643.31;10272507;28;20614;-80
2024/03/06 00:39:08;;;;;;;62.42;32.70;;;;;;;5.57;100.00;100644.63;10274790;28;20065;-81
2024/03/06 00:44:13;;;;;;;60.25;32.90;;;;;;;5.59;100.00;100650.69;10273739;28;20220;-80
2024/03/06 00:49:16;;;;;;;57.50;31.55;;;;;;;5.59;100.00;100649.84;10336436;28;21150;-81
2024/03/06 00:54:19;;;;;;;62.60;30.67;;;;;;;5.63;100.00;100656.75;10325356;28;20405;-79
2024/03/06 00:59:23;;;;;;;62.25;33.65;;;;;;;5.53;100.00;100661.72;10317854;28;20065;-81
2024/03/06 01:04:29;;;;;;;60.92;32.28;;;;;;;5.46;100.00;100660.34;10292466;28;20510;-81
2024/03/06 01:09:32;;;;;;;61.08;31.33;;;;;;;5.46;100.00;100666.53;10293572;28;20042;-82
2024/03/06 01:14:37;;;;;;;59.28;33.08;;;;;;;5.48;100.00;100667.28;10293984;28;20043;-80
2024/03/06 01:19:43;;;;;;;61.78;34.13;;;;;;;5.31;100.00;100675.34;10314556;28;20046;-80
2024/03/06 01:24:48;;;;;;;63.58;33.95;;;;;;;5.21;100.00;100684.78;10303060;28;20050;-78
2024/03/06 01:29:53;;;;;;;66.65;34.83;;;;;;;5.38;100.00;100687.41;10304268;28;20054;-78
2024/03/06 01:34:56;;;;;;;66.45;34.20;;;;;;;5.34;100.00;100677.00;10340438;28;20061;-80
2024/03/06 01:39:59;;;;;;;72.18;34.42;;;;;;;5.25;100.00;100681.88;10329859;28;20086;-81
2024/03/06 01:45:04;;;;;;;66.63;35.72;;;;;;;5.25;100.00;100684.53;10334498;28;20077;-80
2024/03/06 01:50:09;;;;;;;63.60;34.72;;;;;;;5.37;100.00;100684.81;10322035;28;20089;-80
2024/03/06 01:55:13;;;;;;;68.38;35.40;;;;;;;5.35;100.00;100692.91;10309727;28;20061;-78
2024/03/06 02:00:18;;;;;;;73.00;34.47;;;;;;;5.33;100.00;100696.59;10303173;28;20046;-80
2024/03/06 02:05:21;;;;;;;72.10;36.92;;;;;;;5.35;100.00;100697.34;10352926;28;20045;-80
2024/03/06 02:10:26;;;;;;;67.63;34.10;;;;;;;5.35;100.00;100695.56;10326777;28;20050;-80
2024/03/06 02:15:30;;;;;;;65.60;34.58;;;;;;;5.32;100.00;100700.19;10320880;28;20053;-80
2024/03/06 02:20:35;;;;;;;75.78;38.38;;;;;;;5.29;100.00;100695.88;10327658;28;20185;-79
2024/03/06 02:25:38;;;;;;;78.88;39.95;;;;;;;5.22;100.00;100706.00;10331595;28;20053;-79
2024/03/06 02:30:41;;;;;;;78.15;38.42;;;;;;;5.24;100.00;100704.13;10341824;28;20077;-80
2024/03/06 02:35:46;;;;;;;82.07;39.92;;;;;;;5.35;100.00;100708.88;10323393;28;20050;-79
2024/03/06 02:40:49;;;;;;;80.43;38.30;;;;;;;5.21;100.00;100712.28;10300013;28;20073;-79
2024/03/06 02:45:52;;;;;;;75.00;37.72;;;;;;;5.41;100.00;100719.22;10298704;28;20050;-81
2024/03/06 02:50:57;;;;;;;83.75;38.40;;;;;;;5.39;100.00;100713.09;10300092;28;20142;-79
2024/03/06 02:56:00;;;;;;;80.45;37.97;;;;;;;5.41;100.00;100708.56;10303806;28;20042;-79
2024/03/06 03:01:03;;;;;;;76.20;37.75;;;;;;;5.45;100.00;100706.56;10325491;28;20065;-79
2024/03/06 03:06:08;;;;;;;75.50;37.95;;;;;;;5.26;100.00;100707.56;10326651;28;20054;-78
2024/03/06 03:11:12;;;;;;;79.30;39.08;;;;;;;5.32;100.00;100714.38;10302835;28;20045;-79
2024/03/06 03:16:20;;;;;;;75.53;37.15;;;;;;;5.42;100.00;100714.72;10323490;28;20050;-80
2024/03/06 03:21:24;;;;;;;77.15;38.35;;;;;;;5.35;100.00;100724.88;10320136;28;20144;-79
2024/03/06 03:26:27;;;;;;;81.03;38.92;;;;;;;5.34;100.00;100732.94;10329883;28;20050;-79
2024/03/06 03:31:30;;;;;;;81.25;40.83;;;;;;;5.34;100.00;100735.59;10326578;28;20841;-80
2024/03/06 03:36:35;;;;;;;75.68;36.92;;;;;;;5.48;100.00;100741.88;10308101;28;20046;-79
2024/03/06 03:41:38;;;;;;;79.65;38.05;;;;;;;5.43;100.00;100740.41;10293254;28;20122;-79
2024/03/06 03:46:41;;;;;;;80.35;38.10;;;;;;;5.36;100.00;100742.56;10292565;28;20513;-80
2024/03/06 03:51:45;;;;;;;82.25;41.03;;;;;;;5.42;100.00;100742.22;10294359;28;20059;-78
2024/03/06 03:56:48;;;;;;;75.25;38.67;;;;;;;5.48;100.00;100749.88;10293918;28;20614;-79
2024/03/06 04:01:52;;;;;;;81.32;39.50;;;;;;;5.39;100.00;100750.41;10296415;28;20396;-80
2024/03/06 04:06:59;;;;;;;79.53;39.58;;;;;;;5.42;100.00;100758.22;10320420;28;20058;-80
2024/03/06 04:12:02;;;;;;;81.32;40.45;;;;;;;5.32;100.00;100758.78;10308420;28;20046;-81
2024/03/06 04:17:06;;;;;;;81.80;40.20;;;;;;;5.40;100.00;100768.13;10296292;28;20074;-82
2024/03/06 04:22:10;;;;;;;82.57;38.85;;;;;;;5.42;100.00;100771.53;10307799;28;21564;-81
2024/03/06 04:27:13;;;;;;;95.03;40.25;;;;;;;5.26;100.00;100781.28;10332458;28;20049;-80
2024/03/06 04:32:16;;;;;;;79.85;40.05;;;;;;;5.25;100.00;100769.78;10325411;28;20054;-80
2024/03/06 04:37:22;;;;;;;76.22;38.20;;;;;;;5.27;100.00;100783.88;10346701;28;20172;-79
2024/03/06 04:42:25;;;;;;;79.63;39.42;;;;;;;5.31;100.00;100787.25;10346761;28;20764;-82
2024/03/06 04:47:27;;;;;;;80.60;40.33;;;;;;;5.28;100.00;100796.25;10329587;28;20050;-80
2024/03/06 04:52:33;;;;;;;77.57;38.28;;;;;;;5.32;100.00;100794.31;10319769;28;20050;-83
2024/03/06 04:57:37;;;;;;;76.93;38.15;;;;;;;5.27;100.00;100802.53;10313389;28;20046;-81
2024/03/06 05:02:41;;;;;;;85.22;39.22;;;;;;;5.28;100.00;100804.25;10315909;28;20424;-82
2024/03/06 05:08:03;;;;;;;76.88;35.60;;;;;;;5.32;100.00;100804.06;10303101;28;20133;-81
2024/03/06 05:13:24;;;;;;;88.43;39.03;;;;;;;5.36;100.00;100816.31;10317963;28;20107;-81
2024/03/06 05:18:45;;;;;;;76.15;38.28;;;;;;;5.38;100.00;100828.59;10333447;28;20061;-81
2024/03/06 05:24:07;;;;;;;80.38;37.75;;;;;;;5.39;100.00;100829.47;10336098;28;20054;-81
2024/03/06 05:29:27;;;;;;;73.63;37.90;;;;;;;5.40;100.00;100831.19;10343570;28;20054;-80
2024/03/06 05:34:48;;;;;;;75.75;37.83;;;;;;;5.40;100.00;100841.84;10315314;28;20057;-80
2024/03/06 05:40:12;;;;;;;76.00;38.58;;;;;;;5.36;100.00;100846.47;10311470;28;20055;-80
2024/03/06 05:45:32;;;;;;;80.75;38.35;;;;;;;5.33;100.00;100851.09;10298474;28;21207;-80
2024/03/06 05:50:52;;;;;;;82.78;37.78;;;;;;;5.46;100.00;100853.06;10301294;28;20076;-79
2024/03/06 05:56:14;;;;;;;71.28;37.28;;;;;;;5.50;100.00;100853.75;10299435;28;20663;-81
2024/03/06 06:01:35;;;;;;;76.85;38.30;;;;;;;5.52;100.00;100862.53;10316411;28;20129;-82
2024/03/06 06:06:38;;;;;;;76.70;39.30;;;;;;;5.48;100.00;100871.59;10323866;28;20042;-80
2024/03/06 06:11:43;;;;;;;76.38;38.22;;;;;;;5.55;100.00;100882.81;10321486;28;20116;-82
2024/03/06 06:16:46;;;;;;;81.90;38.40;;;;;;;5.53;100.00;100890.88;10287861;28;20054;-80
2024/03/06 06:21:49;;;;;;;83.88;37.65;;;;;;;5.58;100.00;100904.00;10308068;28;20152;-80
2024/03/06 06:26:54;;;;;;;73.85;37.08;;;;;;;5.59;100.00;100898.56;10282509;28;20540;-80
2024/03/06 06:31:57;;;;;;;76.60;36.53;;;;;;;5.58;100.00;100906.66;10299780;28;20779;-79
2024/03/06 06:37:00;;;;;;;70.10;36.28;;;;;;;5.66;100.00;100912.44;10290054;28;20081;-80
2024/03/06 06:42:04;;;;;;;75.72;37.42;;;;;;;5.70;100.00;100917.53;10278670;28;20098;-81
2024/03/06 06:47:07;;;;;;;74.90;38.08;;;;;;;5.81;100.00;100918.75;10291863;28;20054;-79
2024/03/06 06:52:10;;;;;;;70.55;35.85;;;;;;;5.86;100.00;100935.38;10310151;28;20042;-80
2024/03/06 06:57:15;;;;;;;78.63;36.40;;;;;;;5.89;100.00;100943.22;10296589;28;20061;-78
2024/03/06 07:02:18;;;;;;;76.13;37.05;;;;;;;5.94;100.00;100946.50;10301075;28;20050;-79
2024/03/06 07:07:21;;;;;;;65.65;34.95;;;;;;;5.90;100.00;100948.50;10320498;28;20131;-79
2024/03/06 07:12:26;;;;;;;70.47;35.95;;;;;;;5.96;100.00;100960.63;10336635;28;20053;-81
2024/03/06 07:17:29;;;;;;;73.47;37.08;;;;;;;5.97;100.00;100973.00;10308897;28;20053;-81
2024/03/06 07:22:33;;;;;;;78.95;36.85;;;;;;;6.00;100.00;100972.84;10332068;28;20053;-81
2024/03/06 07:27:38;;;;;;;80.57;36.47;;;;;;;5.97;100.00;100978.34;10323381;28;20057;-80
2024/03/06 07:32:41;;;;;;;78.15;36.75;;;;;;;6.08;100.00;100973.31;10310867;28;20509;-80
2024/03/06 07:37:45;;;;;;;81.95;37.50;;;;;;;6.14;100.00;100980.13;10324864;28;20521;-80
2024/03/06 07:42:50;;;;;;;76.50;36.50;;;;;;;6.28;100.00;100987.38;10318561;28;20046;-79
2024/03/06 07:47:53;;;;;;;90.18;37.67;;;;;;;6.43;100.00;100993.72;10350028;28;20056;-81
2024/03/06 07:52:56;;;;;;;81.47;37.83;;;;;;;6.54;100.00;101000.19;10362132;28;20057;-82
2024/03/06 07:58:01;;;;;;;70.57;34.58;;;;;;;6.59;100.00;101007.97;10356261;28;20052;-81
2024/03/06 08:03:04;;;;;;;69.70;33.85;;;;;;;6.74;100.00;101014.25;10362656;28;20054;-83
2024/03/06 08:08:07;;;;;;;58.60;31.55;;;;;;;6.80;100.00;101025.47;10372871;28;20129;-78
2024/03/06 08:13:12;;;;;;;58.85;31.13;;;;;;;6.90;100.00;101027.66;10375890;28;20050;-79
2024/03/06 08:18:15;;;;;;;62.28;31.90;;;;;;;6.75;100.00;101032.88;10374032;28;20049;-80
2024/03/06 08:23:19;;;;;;;74.35;34.85;;;;;;;6.77;100.00;101043.47;10365236;28;20453;-79
2024/03/06 08:28:23;;;;;;;75.20;37.60;;;;;;;6.66;100.00;101044.03;10362173;28;20054;-80
2024/03/06 08:33:26;;;;;;;76.78;35.55;;;;;;;6.66;100.00;101043.19;10367066;28;20046;-81
2024/03/06 08:38:30;;;;;;;74.07;34.97;;;;;;;6.77;100.00;101055.00;10359580;28;20130;-80
2024/03/06 08:43:34;;;;;;;72.15;34.67;;;;;;;6.87;100.00;101059.84;10370725;28;20046;-79
2024/03/06 08:48:40;;;;;;;72.63;36.88;;;;;;;6.81;100.00;101069.06;10396182;28;20034;-79
2024/03/06 08:53:43;;;;;;;86.55;39.15;;;;;;;6.79;100.00;101077.16;10373620;28;20486;-80
2024/03/06 08:58:47;;;;;;;77.32;37.20;;;;;;;6.66;100.00;101080.56;10369283;28;20497;-81
2024/03/06 09:03:50;;;;;;;87.47;36.70;;;;;;;6.65;100.00;101081.53;10389009;28;20057;-83
2024/03/06 09:08:53;;;;;;;91.20;40.35;;;;;;;6.72;100.00;101089.13;10371011;28;20073;-80
2024/03/06 09:13:59;;;;;;;81.03;36.58;;;;;;;6.81;100.00;101093.97;10364842;28;20041;-82
2024/03/06 09:19:05;;;;;;;75.22;36.33;;;;;;;6.85;100.00;101100.00;10372582;28;20054;-79
2024/03/06 09:24:08;;;;;;;80.22;38.70;;;;;;;6.79;100.00;101095.00;10385364;28;20068;-80
2024/03/06 09:29:13;;;;;;;80.90;36.92;;;;;;;6.91;100.00;101118.41;10387295;28;20285;-81
2024/03/06 09:34:16;;;;;;;80.22;40.22;;;;;;;7.04;100.00;101115.91;10366819;28;20139;-80
2024/03/06 09:39:23;;;;;;;88.38;40.05;;;;;;;7.05;100.00;101115.00;10371001;28;20085;-81
2024/03/06 09:44:27;;;;;;;93.88;42.08;;;;;;;7.08;100.00;101128.19;10364368;28;20041;-81
2024/03/06 09:49:30;;;;;;;93.65;41.08;;;;;;;7.17;100.00;101129.47;10370464;28;20157;-79
2024/03/06 09:54:34;;;;;;;86.53;40.60;;;;;;;7.18;100.00;101136.53;10365641;28;20043;-81
2024/03/06 09:59:43;;;;;;;88.03;40.22;;;;;;;7.27;100.00;101134.22;10361323;28;20510;-79
2024/03/06 10:04:46;;;;;;;90.60;40.25;;;;;;;7.38;100.00;101141.66;10365611;28;20050;-78
2024/03/06 10:09:50;;;;;;;90.57;40.22;;;;;;;7.41;100.00;101149.50;10355631;28;20148;-79
2024/03/06 10:14:56;;;;;;;90.70;39.40;;;;;;;7.38;100.00;101152.34;10377620;28;20046;-79
2024/03/06 10:20:04;;;;;;;89.72;40.97;;;;;;;7.41;100.00;101151.31;10339808;28;20050;-78
2024/03/06 10:25:09;;;;;;;98.32;40.88;;;;;;;7.62;100.00;101150.09;10339674;28;20039;-78
2024/03/06 10:30:15;;;;;;;95.38;41.28;;;;;;;7.67;100.00;101147.16;10355647;28;20709;-80
2024/03/06 10:35:20;;;;;;;84.50;40.78;;;;;;;7.81;100.00;101152.56;10371043;28;20046;-80
2024/03/06 10:40:24;;;;;;;95.68;42.03;;;;;;;7.80;100.00;101164.25;10345479;28;20493;-80
2024/03/06 10:45:35;;;;;;;92.03;41.13;;;;;;;7.67;100.00;101165.88;10344410;28;20070;-79
2024/03/06 10:50:41;;;;;;;94.03;41.22;;;;;;;7.81;100.00;101165.09;10353339;28;20050;-80
2024/03/06 10:55:45;;;;;;;89.70;40.25;;;;;;;7.99;100.00;101174.75;10360187;28;20057;-80
2024/03/06 11:00:52;;;;;;;94.60;41.58;;;;;;;8.18;100.00;101177.22;10366034;28;20042;-81
2024/03/06 11:05:55;;;;;;;84.45;39.80;;;;;;;8.23;100.00;101168.91;10362489;28;20070;-80
2024/03/06 11:11:22;;;;;;;98.28;41.63;;;;;;;8.22;100.00;101178.75;10362743;28;20050;-80
2024/03/06 11:16:33;;;;;;;94.28;39.53;;;;;;;8.17;100.00;101180.84;10370153;28;20560;-80
2024/03/06 11:21:47;;;;;;;94.07;40.03;;;;;;;8.24;100.00;101186.72;10360863;28;20094;-80
2024/03/06 11:27:01;;;;;;;89.10;39.67;;;;;;;8.33;100.00;101194.19;10347385;28;20050;-81
2024/03/06 11:32:11;;;;;;;91.47;41.22;;;;;;;8.26;100.00;101203.56;10398277;28;20049;-81
2024/03/06 11:37:22;;;;;;;87.65;40.67;;;;;;;8.23;100.00;101201.03;10360424;28;20050;-81
2024/03/06 11:42:35;;;;;;;87.22;39.08;;;;;;;8.30;100.00;101199.72;10343605;28;20043;-80
2024/03/06 11:48:16;;;;;;;87.78;39.13;;;;;;;8.35;100.00;101206.53;10368499;28;20060;-79
2024/03/06 11:53:22;;;;;;;82.37;38.20;;;;;;;8.40;99.40;101208.94;10358950;28;20129;-80
2024/03/06 11:58:26;;;;;;;84.18;39.10;;;;;;;8.39;96.75;101208.09;10353132;28;20140;-81
2024/03/06 12:03:29;;;;;;;86.50;39.28;;;;;;;8.50;100.00;101203.94;10371936;28;20457;-78
2024/03/06 12:08:36;;;;;;;88.13;36.97;;;;;;;8.58;100.00;101213.25;10369123;28;20038;-79
2024/03/06 12:13:42;;;;;;;79.85;38.53;;;;;;;8.56;97.97;101222.34;10352722;28;20129;-77
2024/03/06 12:18:46;;;;;;;82.35;38.00;;;;;;;8.53;100.00;101210.00;10373890;28;20096;-77
2024/03/06 12:23:50;;;;;;;78.30;37.70;;;;;;;8.56;100.00;101217.84;10352677;28;20117;-79
2024/03/06 12:29:05;;;;;;;70.57;34.28;;;;;;;8.69;100.00;101217.94;10373189;28;20410;-78
2024/03/06 12:34:08;;;;;;;76.95;34.63;;;;;;;8.77;98.80;101220.16;10353397;28;20128;-80
2024/03/06 12:39:20;;;;;;;67.57;34.22;;;;;;;8.94;99.12;101219.16;10358452;28;20052;-78
2024/03/06 12:44:23;;;;;;;76.80;35.28;;;;;;;9.04;97.98;101223.84;10331262;28;20062;-79
2024/03/06 12:49:26;;;;;;;74.20;35.42;;;;;;;9.24;98.89;101216.41;10332170;28;20058;-79
2024/03/06 12:54:31;;;;;;;81.63;35.30;;;;;;;9.64;100.00;101220.13;10339050;28;20138;-78
2024/03/06 12:59:34;;;;;;;74.88;33.75;;;;;;;10.21;100.00;101211.09;10358494;28;20050;-78
2024/03/06 13:04:37;;;;;;;69.10;34.22;;;;;;;10.32;88.88;101218.44;10367927;28;20558;-78
2024/03/06 13:09:41;;;;;;;68.85;32.97;;;;;;;10.51;90.03;101215.38;10367903;28;20049;-79
2024/03/06 13:14:44;;;;;;;61.85;31.98;;;;;;;10.56;93.10;101213.25;10358121;28;20048;-78
2024/03/06 13:19:47;;;;;;;63.45;31.08;;;;;;;10.45;91.01;101229.19;10355854;28;20048;-79
2024/03/06 13:24:52;;;;;;;63.45;31.40;;;;;;;9.99;91.22;101221.53;10357359;28;20056;-79
2024/03/06 13:29:55;;;;;;;70.68;33.05;;;;;;;9.97;92.26;101218.94;10352937;28;20141;-81
2024/03/06 13:34:58;;;;;;;67.00;32.22;;;;;;;10.19;96.62;101221.06;10356954;28;20815;-81
2024/03/06 13:40:03;;;;;;;69.30;33.67;;;;;;;10.53;95.54;101222.38;10339022;28;20073;-81
2024/03/06 13:45:11;;;;;;;73.18;34.78;;;;;;;10.88;92.31;101218.22;10347029;28;20046;-80
2024/03/06 13:50:16;;;;;;;68.25;33.40;;;;;;;10.84;83.16;101228.31;10347061;28;20422;-81
2024/03/06 13:55:20;;;;;;;68.32;33.38;;;;;;;10.71;88.61;101233.66;10345132;28;20047;-80
2024/03/06 14:00:24;;;;;;;71.45;34.85;;;;;;;10.60;95.17;101229.03;10388446;28;20054;-80
2024/03/06 14:05:27;;;;;;;65.15;33.08;;;;;;;10.56;93.25;101234.72;10362934;28;20042;-81
2024/03/06 14:10:33;;;;;;;63.95;32.60;;;;;;;10.51;93.48;101242.25;10350433;28;20058;-78
2024/03/06 14:15:36;;;;;;;59.05;31.25;;;;;;;10.44;88.73;101235.53;10354129;28;20053;-80
2024/03/06 14:20:41;;;;;;;51.05;29.00;;;;;;;10.52;93.85;101235.88;10359235;28;20105;-80
2024/03/06 14:25:45;;;;;;;55.45;30.60;;;;;;;10.54;86.97;101242.88;10363321;28;20050;-81
2024/03/06 14:30:48;;;;;;;48.00;28.77;;;;;;;10.60;89.85;101247.84;10352933;28;20054;-80
2024/03/06 14:35:51;;;;;;;47.60;28.02;;;;;;;10.96;90.25;101232.84;10340097;28;20597;-80
2024/03/06 14:40:56;;;;;;;49.28;27.13;;;;;;;11.36;90.64;101240.84;10342202;28;20066;-79
2024/03/06 14:45:59;;;;;;;49.85;27.75;;;;;;;11.24;82.19;101242.59;10340261;28;20047;-80
2024/03/06 14:51:02;;;;;;;42.22;26.15;;;;;;;11.18;87.64;101245.69;10341350;28;20054;-80
2024/03/06 14:56:07;;;;;;;47.03;25.92;;;;;;;11.03;86.52;101241.38;10343815;28;20035;-79
2024/03/06 15:01:10;;;;;;;46.40;27.33;;;;;;;10.93;87.07;101243.81;10358009;28;20050;-80
2024/03/06 15:06:13;;;;;;;43.53;25.20;;;;;;;11.14;85.44;101237.97;10341000;28;20042;-81
2024/03/06 15:11:17;;;;;;;38.13;24.52;;;;;;;10.97;77.57;101239.97;10337816;28;20050;-80
2024/03/06 15:16:21;;;;;;;44.20;26.55;;;;;;;10.90;77.22;101241.34;10336609;28;20465;-80
2024/03/06 15:21:24;;;;;;;44.95;26.67;;;;;;;10.94;77.27;101252.72;10345014;28;20054;-80
2024/03/06 15:26:28;;;;;;;47.92;26.75;;;;;;;10.68;75.89;101258.06;10359724;28;20397;-79
2024/03/06 15:31:31;;;;;;;43.30;26.23;;;;;;;10.26;75.49;101254.63;10336334;28;20046;-80
2024/03/06 15:36:34;;;;;;;43.17;26.98;;;;;;;10.08;79.28;101251.28;10349510;28;20053;-80
2024/03/06 15:41:39;;;;;;;51.17;28.42;;;;;;;9.83;77.52;101251.13;10354601;28;20057;-80
2024/03/06 15:46:42;;;;;;;53.97;28.35;;;;;;;9.61;79.89;101254.31;10353771;28;20101;-80
2024/03/06 15:51:54;;;;;;;54.75;29.98;;;;;;;9.47;80.37;101258.75;10375397;28;20060;-80
2024/03/06 15:56:58;;;;;;;47.03;27.48;;;;;;;9.35;81.15;101262.19;10372701;28;20405;-79
2024/03/06 16:02:05;;;;;;;49.85;28.48;;;;;;;9.16;81.64;101265.16;10359528;28;20599;-80
2024/03/06 16:07:11;;;;;;;48.13;28.50;;;;;;;9.09;82.41;101263.78;10349934;28;20517;-80
2024/03/06 16:12:16;;;;;;;49.85;27.08;;;;;;;9.00;81.65;101267.03;10377104;28;20515;-80
2024/03/06 16:17:19;;;;;;;51.00;27.38;;;;;;;8.97;84.36;101273.44;10375803;28;20519;-81
2024/03/06 16:22:23;;;;;;;49.72;28.75;;;;;;;8.91;83.10;101279.13;10377843;28;20046;-81
2024/03/06 16:27:27;;;;;;;51.45;27.17;;;;;;;8.82;83.18;101285.06;10402916;28;20065;-82
2024/03/06 16:32:31;;;;;;;46.85;27.35;;;;;;;8.74;81.98;101288.19;10377582;28;20050;-81
2024/03/06 16:37:37;;;;;;;55.88;28.13;;;;;;;8.68;83.61;101295.75;10372975;28;20053;-79
2024/03/06 16:42:52;;;;;;;46.47;26.75;;;;;;;8.56;81.78;101294.66;10380546;28;20736;-80
2024/03/06 16:47:59;;;;;;;46.53;26.83;;;;;;;8.51;84.79;101304.75;10375279;28;20058;-82
2024/03/06 16:53:06;;;;;;;50.20;27.30;;;;;;;8.45;85.52;101311.31;10378095;28;20069;-80
2024/03/06 16:58:11;;;;;;;49.85;27.17;;;;;;;8.42;86.32;101314.16;10383129;28;20046;-80
2024/03/06 17:03:14;;;;;;;50.70;26.98;;;;;;;8.39;86.29;101317.88;10369889;28;20038;-79
2024/03/06 17:08:17;;;;;;;45.08;25.80;;;;;;;8.35;84.61;101312.78;10374944;28;20096;-81
2024/03/06 17:13:22;;;;;;;48.22;26.85;;;;;;;8.25;82.10;101323.13;10364415;28;20042;-78
2024/03/06 17:18:25;;;;;;;46.33;27.42;;;;;;;8.25;85.49;101330.28;10357370;28;20073;-80
2024/03/06 17:23:28;;;;;;;48.22;25.83;;;;;;;8.19;84.36;101334.19;10366628;28;20065;-79
2024/03/06 17:28:33;;;;;;;44.28;26.35;;;;;;;8.17;85.77;101338.75;10349060;28;20515;-80
2024/03/06 17:33:35;;;;;;;43.92;25.63;;;;;;;8.15;86.76;101341.53;10376109;28;20479;-80
2024/03/06 17:38:41;;;;;;;48.40;26.08;;;;;;;8.14;85.87;101342.44;10390559;28;20042;-80
2024/03/06 17:43:45;;;;;;;39.63;24.95;;;;;;;8.14;87.47;101360.34;10378980;28;20042;-80
2024/03/06 17:48:49;;;;;;;40.40;24.25;;;;;;;8.13;88.36;101362.16;10362729;28;20108;-79
2024/03/06 17:53:52;;;;;;;42.22;25.77;;;;;;;8.10;88.23;101362.31;10353628;28;20088;-79
2024/03/06 17:58:57;;;;;;;58.38;26.45;;;;;;;8.03;84.24;101371.63;10350947;28;20054;-78
2024/03/06 18:04:00;;;;;;;46.50;26.67;;;;;;;8.06;86.57;101371.44;10358969;28;20061;-78
2024/03/06 18:09:09;;;;;;;45.53;26.95;;;;;;;8.02;84.90;101375.25;10375817;28;20114;-78
2024/03/06 18:14:14;;;;;;;50.63;26.67;;;;;;;8.06;87.54;101378.63;10371497;28;20076;-79
2024/03/06 18:19:17;;;;;;;47.50;26.73;;;;;;;8.05;87.68;101384.94;10371214;28;20482;-78
2024/03/06 18:24:20;;;;;;;51.33;26.35;;;;;;;8.01;86.40;101381.56;10364659;28;20135;-78
2024/03/06 18:29:25;;;;;;;45.78;26.80;;;;;;;8.00;84.88;101389.66;10373540;28;20496;-79
2024/03/06 18:34:29;;;;;;;48.42;28.33;;;;;;;7.97;83.34;101384.50;10402221;28;20060;-79
2024/03/06 18:39:32;;;;;;;45.42;25.17;;;;;;;7.97;83.73;101387.16;10376279;28;20038;-78
2024/03/06 18:44:36;;;;;;;43.03;25.65;;;;;;;7.95;83.77;101379.22;10379077;28;20048;-79
2024/03/06 18:49:41;;;;;;;48.45;26.95;;;;;;;7.93;81.12;101394.50;10380738;28;20052;-79
2024/03/06 18:54:44;;;;;;;43.97;25.90;;;;;;;7.97;84.24;101380.00;10375958;28;20052;-79
2024/03/06 18:59:49;;;;;;;44.75;27.00;;;;;;;7.97;84.29;101398.72;10374443;28;20069;-80
2024/03/06 19:04:52;;;;;;;49.15;26.65;;;;;;;7.93;83.24;101398.03;10355912;28;20058;-79
2024/03/06 19:09:56;;;;;;;49.00;27.42;;;;;;;7.92;82.49;101406.13;10372862;28;20054;-80
2024/03/06 19:15:00;;;;;;;45.22;26.77;;;;;;;7.93;82.55;101402.53;10373493;28;20041;-80
2024/03/06 19:20:05;;;;;;;45.03;26.02;;;;;;;7.92;82.48;101407.00;10379685;28;20148;-80
2024/03/06 19:25:09;;;;;;;44.90;26.98;;;;;;;7.94;81.82;101410.47;10369006;28;20144;-79
2024/03/06 19:30:14;;;;;;;51.88;27.67;;;;;;;7.93;81.37;101414.09;10368718;28;20096;-79
2024/03/06 19:35:18;;;;;;;50.53;28.08;;;;;;;7.93;80.62;101410.56;10365510;28;20449;-78
2024/03/06 19:40:21;;;;;;;50.60;27.75;;;;;;;7.92;79.81;101407.00;10362527;28;20041;-78
2024/03/06 19:45:25;;;;;;;53.00;28.10;;;;;;;7.92;78.97;101408.81;10380072;28;20104;-80
2024/03/06 19:50:29;;;;;;;62.90;32.05;;;;;;;7.91;77.89;101412.44;10363653;28;20119;-80
2024/03/06 19:55:32;;;;;;;57.78;32.58;;;;;;;7.89;75.83;101414.31;10365515;28;20416;-80
2024/03/06 20:00:36;;;;;;;45.30;24.92;;;;;;;7.79;72.09;101411.28;10380407;28;20041;-80
2024/03/06 20:05:39;;;;;;;41.00;23.75;;;;;;;7.80;70.08;101417.50;10372799;28;20084;-79
2024/03/06 20:10:42;;;;;;;43.88;24.63;;;;;;;7.82;71.01;101420.97;10371809;28;20042;-79
2024/03/06 20:15:47;;;;;;;44.90;25.10;;;;;;;7.84;71.67;101417.22;10368887;28;20042;-77
2024/03/06 20:20:50;;;;;;;47.95;25.33;;;;;;;7.83;72.33;101425.34;10357636;28;20050;-79
2024/03/06 20:25:53;;;;;;;45.70;25.08;;;;;;;7.83;71.82;101431.56;10335546;28;20120;-78
2024/03/06 20:31:02;;;;;;;41.78;24.92;;;;;;;7.76;70.83;101423.94;10336164;28;20054;-80
2024/03/06 20:36:05;;;;;;;43.53;24.00;;;;;;;7.75;71.04;101422.22;10373067;28;20037;-79
2024/03/06 20:41:09;;;;;;;42.45;25.08;;;;;;;7.74;70.67;101424.03;10336185;28;20053;-81
2024/03/06 20:46:13;;;;;;;40.63;23.58;;;;;;;7.69;70.56;101424.28;10338565;28;20031;-79
2024/03/06 20:51:16;;;;;;;46.40;24.30;;;;;;;7.65;69.18;101425.41;10361263;28;20081;-79
2024/03/06 20:56:19;;;;;;;41.33;23.58;;;;;;;7.57;68.37;101432.94;10368984;28;20085;-80
2024/03/06 21:01:24;;;;;;;49.70;25.70;;;;;;;7.58;68.60;101431.13;10359851;28;20116;-80
2024/03/06 21:06:29;;;;;;;42.05;24.52;;;;;;;7.53;69.20;101438.53;10371394;28;20100;-78
2024/03/06 21:11:32;;;;;;;42.65;25.10;;;;;;;7.49;69.83;101438.69;10379466;28;20034;-79
2024/03/06 21:16:36;;;;;;;42.05;23.92;;;;;;;7.35;70.45;101437.66;10352264;28;20054;-81
2024/03/06 21:21:42;;;;;;;40.67;24.20;;;;;;;7.06;71.49;101440.00;10347470;28;20060;-80
2024/03/06 21:26:48;;;;;;;51.63;27.38;;;;;;;6.82;72.15;101432.19;10365390;28;20084;-80
2024/03/06 21:31:53;;;;;;;48.33;25.00;;;;;;;6.63;72.85;101440.22;10363991;28;20046;-81
2024/03/06 21:36:57;;;;;;;48.65;25.50;;;;;;;6.42;73.79;101449.28;10375991;28;20141;-80
2024/03/06 21:42:00;;;;;;;50.00;26.63;;;;;;;6.27;74.28;101439.28;10353543;28;20120;-81
2024/03/06 21:47:05;;;;;;;48.10;25.88;;;;;;;6.10;74.74;101450.75;10352894;28;20081;-81
2024/03/06 21:52:11;;;;;;;39.58;22.48;;;;;;;5.99;73.15;101453.03;10357510;28;20062;-81
2024/03/06 21:57:15;;;;;;;42.65;22.50;;;;;;;5.88;72.33;101454.38;10358472;28;20084;-79
2024/03/06 22:02:19;;;;;;;38.85;21.02;;;;;;;5.82;71.23;101456.44;10362727;28;20084;-78
2024/03/06 22:07:22;;;;;;;35.17;20.27;;;;;;;5.79;70.56;101462.78;10380369;28;20136;-80
2024/03/06 22:12:26;;;;;;;33.22;18.00;;;;;;;5.71;69.98;101464.91;10372185;28;20120;-79
2024/03/06 22:17:31;;;;;;;35.25;19.58;;;;;;;5.58;70.35;101469.03;10364882;28;20049;-78
2024/03/06 22:22:34;;;;;;;32.35;19.50;;;;;;;5.45;70.94;101466.88;10366421;28;20046;-79
2024/03/06 22:27:38;;;;;;;34.80;19.48;;;;;;;5.38;71.30;101480.56;10370976;28;20052;-78
2024/03/06 22:32:43;;;;;;;33.97;18.55;;;;;;;5.30;70.83;101482.69;10368374;28;20042;-79
2024/03/06 22:37:46;;;;;;;31.75;17.55;;;;;;;5.26;71.38;101482.78;10361130;28;20142;-81
2024/03/06 22:42:49;;;;;;;33.28;18.50;;;;;;;5.09;71.38;101479.09;10355212;28;20141;-80
2024/03/06 22:47:54;;;;;;;30.73;18.30;;;;;;;5.05;71.46;101473.03;10370287;28;20046;-80
2024/03/06 22:52:59;;;;;;;31.13;17.45;;;;;;;5.01;71.33;101482.06;10371541;28;20050;-78
2024/03/06 22:58:03;;;;;;;28.95;17.08;;;;;;;5.00;71.02;101485.66;10339799;28;20125;-81